SBPG/PNG METAR and TAF weather

Enter ICAO airport designator
Station Type Date Time Source
SBPG METAR 2019/10/21 16:00 UTC NOAA

SBPG 211600Z 06006KT 9999 BKN027 OVC067 16/14 Q1013


Station Type Date Time Source
SBPG Decoded METAR 2019/10/21 16:00 UTC NOAA

Paranagua, Brazil (SBPG) 25-31S 048-31W
Oct 21, 2019 - 12:00 PM EDT / 2019.10.21 1600 UTC
Wind: from the ENE (060 degrees) at 7 MPH (6 KT):0
Visibility: greater than 7 mile(s):0
Sky conditions: overcast
Temperature: 60 F (16 C)
Dew Point: 57 F (14 C)
Relative Humidity: 87%
Pressure (altimeter): 29.91 in. Hg (1013 hPa)
ob: SBPG 211600Z 06006KT 9999 BKN027 OVC067 16/14 Q1013
cycle: 16

Station Type Date Time Source
SBPG TAF UTC NOAA

Error!

Example: see airport list